sensor_id;sensor_type;location;lat;lon;timestamp;P1;durP1;ratioP1;P2;durP2;ratioP2
5225;SDS011;2632;51.666;7.146;2022-09-09T00:01:23;2.10;;;0.90;;
5225;SDS011;2632;51.666;7.146;2022-09-09T00:07:03;2.57;;;0.80;;
5225;SDS011;2632;51.666;7.146;2022-09-09T00:09:31;2.03;;;0.70;;
5225;SDS011;2632;51.666;7.146;2022-09-09T00:12:17;0.93;;;0.73;;
5225;SDS011;2632;51.666;7.146;2022-09-09T00:17:39;1.20;;;0.80;;
5225;SDS011;2632;51.666;7.146;2022-09-09T00:20:19;1.17;;;0.60;;
5225;SDS011;2632;51.666;7.146;2022-09-09T00:22:57;0.80;;;0.60;;
5225;SDS011;2632;51.666;7.146;2022-09-09T00:28:18;1.90;;;0.70;;
5225;SDS011;2632;51.666;7.146;2022-09-09T00:30:52;1.50;;;0.63;;
5225;SDS011;2632;51.666;7.146;2022-09-09T00:33:22;0.60;;;0.50;;
5225;SDS011;2632;51.666;7.146;2022-09-09T00:35:54;0.90;;;0.60;;
5225;SDS011;2632;51.666;7.146;2022-09-09T00:38:25;1.23;;;0.60;;
5225;SDS011;2632;51.666;7.146;2022-09-09T00:41:43;0.80;;;0.40;;
5225;SDS011;2632;51.666;7.146;2022-09-09T00:57:35;0.50;;;0.40;;
5225;SDS011;2632;51.666;7.146;2022-09-09T01:11:24;1.53;;;0.57;;
5225;SDS011;2632;51.666;7.146;2022-09-09T01:14:41;0.80;;;0.60;;
5225;SDS011;2632;51.666;7.146;2022-09-09T01:17:17;1.00;;;0.60;;
5225;SDS011;2632;51.666;7.146;2022-09-09T01:20:03;0.50;;;0.50;;
5225;SDS011;2632;51.666;7.146;2022-09-09T01:22:44;0.80;;;0.50;;
5225;SDS011;2632;51.666;7.146;2022-09-09T01:28:27;0.70;;;0.53;;
5225;SDS011;2632;51.666;7.146;2022-09-09T01:30:55;1.00;;;0.57;;
5225;SDS011;2632;51.666;7.146;2022-09-09T01:33:23;0.70;;;0.63;;
5225;SDS011;2632;51.666;7.146;2022-09-09T01:35:51;0.60;;;0.50;;
5225;SDS011;2632;51.666;7.146;2022-09-09T01:38:23;0.50;;;0.50;;
5225;SDS011;2632;51.666;7.146;2022-09-09T01:40:51;1.77;;;0.50;;
5225;SDS011;2632;51.666;7.146;2022-09-09T01:43:21;0.97;;;0.43;;
5225;SDS011;2632;51.666;7.146;2022-09-09T01:45:51;3.93;;;0.60;;
5225;SDS011;2632;51.666;7.146;2022-09-09T01:48:21;0.60;;;0.47;;
5225;SDS011;2632;51.666;7.146;2022-09-09T01:50:49;0.50;;;0.50;;
5225;SDS011;2632;51.666;7.146;2022-09-09T01:53:16;0.97;;;0.60;;
5225;SDS011;2632;51.666;7.146;2022-09-09T01:58:24;0.70;;;0.50;;
5225;SDS011;2632;51.666;7.146;2022-09-09T02:01:26;1.57;;;0.60;;
5225;SDS011;2632;51.666;7.146;2022-09-09T02:06:55;2.20;;;0.60;;
5225;SDS011;2632;51.666;7.146;2022-09-09T02:09:23;1.77;;;0.70;;
5225;SDS011;2632;51.666;7.146;2022-09-09T02:12:02;1.23;;;0.70;;
5225;SDS011;2632;51.666;7.146;2022-09-09T02:14:36;1.37;;;0.60;;
5225;SDS011;2632;51.666;7.146;2022-09-09T02:17:08;0.70;;;0.70;;
5225;SDS011;2632;51.666;7.146;2022-09-09T02:19:37;1.87;;;0.70;;
5225;SDS011;2632;51.666;7.146;2022-09-09T02:22:10;1.00;;;0.90;;
5225;SDS011;2632;51.666;7.146;2022-09-09T02:24:38;0.73;;;0.60;;
5225;SDS011;2632;51.666;7.146;2022-09-09T02:27:06;3.73;;;0.80;;
5225;SDS011;2632;51.666;7.146;2022-09-09T02:29:36;1.27;;;0.50;;
5225;SDS011;2632;51.666;7.146;2022-09-09T02:32:11;0.70;;;0.57;;
5225;SDS011;2632;51.666;7.146;2022-09-09T02:34:52;1.00;;;0.80;;
5225;SDS011;2632;51.666;7.146;2022-09-09T02:37:23;0.83;;;0.60;;
5225;SDS011;2632;51.666;7.146;2022-09-09T02:39:55;0.93;;;0.60;;
5225;SDS011;2632;51.666;7.146;2022-09-09T02:42:22;1.00;;;0.63;;
5225;SDS011;2632;51.666;7.146;2022-09-09T02:44:49;1.53;;;0.70;;
5225;SDS011;2632;51.666;7.146;2022-09-09T02:47:28;1.00;;;0.90;;
5225;SDS011;2632;51.666;7.146;2022-09-09T02:53:00;1.53;;;0.83;;
5225;SDS011;2632;51.666;7.146;2022-09-09T02:58:39;1.53;;;0.67;;
5225;SDS011;2632;51.666;7.146;2022-09-09T03:01:06;0.90;;;0.70;;
5225;SDS011;2632;51.666;7.146;2022-09-09T03:03:34;1.10;;;1.00;;
5225;SDS011;2632;51.666;7.146;2022-09-09T03:06:01;3.60;;;0.77;;
5225;SDS011;2632;51.666;7.146;2022-09-09T03:08:28;0.70;;;0.60;;
5225;SDS011;2632;51.666;7.146;2022-09-09T03:10:55;2.23;;;0.70;;
5225;SDS011;2632;51.666;7.146;2022-09-09T03:13:24;0.90;;;0.60;;
5225;SDS011;2632;51.666;7.146;2022-09-09T03:15:51;1.10;;;0.70;;
5225;SDS011;2632;51.666;7.146;2022-09-09T03:18:17;1.80;;;0.97;;
5225;SDS011;2632;51.666;7.146;2022-09-09T03:20:45;1.20;;;0.70;;
5225;SDS011;2632;51.666;7.146;2022-09-09T03:23:14;1.87;;;0.73;;
5225;SDS011;2632;51.666;7.146;2022-09-09T03:25:47;1.30;;;0.70;;
5225;SDS011;2632;51.666;7.146;2022-09-09T03:28:15;1.17;;;0.60;;
5225;SDS011;2632;51.666;7.146;2022-09-09T03:30:42;0.83;;;0.60;;
5225;SDS011;2632;51.666;7.146;2022-09-09T03:33:08;0.97;;;0.90;;
5225;SDS011;2632;51.666;7.146;2022-09-09T03:35:35;2.20;;;0.90;;
5225;SDS011;2632;51.666;7.146;2022-09-09T03:38:02;1.50;;;0.73;;
5225;SDS011;2632;51.666;7.146;2022-09-09T03:40:29;1.60;;;0.80;;
5225;SDS011;2632;51.666;7.146;2022-09-09T03:42:56;2.30;;;0.80;;
5225;SDS011;2632;51.666;7.146;2022-09-09T03:45:23;1.37;;;0.80;;
5225;SDS011;2632;51.666;7.146;2022-09-09T03:47:50;0.70;;;0.70;;
5225;SDS011;2632;51.666;7.146;2022-09-09T03:50:16;1.03;;;0.70;;
5225;SDS011;2632;51.666;7.146;2022-09-09T03:52:44;2.03;;;0.90;;
5225;SDS011;2632;51.666;7.146;2022-09-09T03:55:11;2.50;;;0.80;;
5225;SDS011;2632;51.666;7.146;2022-09-09T03:57:38;3.70;;;0.70;;
5225;SDS011;2632;51.666;7.146;2022-09-09T04:00:05;1.57;;;0.80;;
5225;SDS011;2632;51.666;7.146;2022-09-09T04:02:33;1.43;;;0.70;;
5225;SDS011;2632;51.666;7.146;2022-09-09T04:05:00;2.00;;;0.87;;
5225;SDS011;2632;51.666;7.146;2022-09-09T04:07:27;1.27;;;1.03;;
5225;SDS011;2632;51.666;7.146;2022-09-09T04:09:54;2.40;;;1.00;;
5225;SDS011;2632;51.666;7.146;2022-09-09T04:12:20;2.30;;;0.80;;
5225;SDS011;2632;51.666;7.146;2022-09-09T04:14:48;1.40;;;0.80;;
5225;SDS011;2632;51.666;7.146;2022-09-09T04:17:15;1.03;;;0.73;;
5225;SDS011;2632;51.666;7.146;2022-09-09T04:19:42;1.37;;;0.97;;
5225;SDS011;2632;51.666;7.146;2022-09-09T04:22:08;2.70;;;1.17;;
5225;SDS011;2632;51.666;7.146;2022-09-09T04:24:35;1.47;;;1.00;;
5225;SDS011;2632;51.666;7.146;2022-09-09T04:27:02;2.93;;;1.07;;
5225;SDS011;2632;51.666;7.146;2022-09-09T04:29:28;1.07;;;1.00;;
5225;SDS011;2632;51.666;7.146;2022-09-09T04:31:55;1.50;;;0.90;;
5225;SDS011;2632;51.666;7.146;2022-09-09T04:34:22;5.90;;;1.10;;
5225;SDS011;2632;51.666;7.146;2022-09-09T04:36:48;2.73;;;1.17;;
5225;SDS011;2632;51.666;7.146;2022-09-09T04:39:15;1.10;;;1.00;;
5225;SDS011;2632;51.666;7.146;2022-09-09T04:41:41;1.77;;;1.13;;
5225;SDS011;2632;51.666;7.146;2022-09-09T04:44:08;2.77;;;1.20;;
5225;SDS011;2632;51.666;7.146;2022-09-09T04:46:36;2.30;;;1.17;;
5225;SDS011;2632;51.666;7.146;2022-09-09T04:49:02;2.73;;;1.60;;
5225;SDS011;2632;51.666;7.146;2022-09-09T04:51:29;2.70;;;2.30;;
5225;SDS011;2632;51.666;7.146;2022-09-09T04:53:57;3.90;;;1.30;;
5225;SDS011;2632;51.666;7.146;2022-09-09T04:56:23;1.53;;;1.20;;
5225;SDS011;2632;51.666;7.146;2022-09-09T04:58:52;3.80;;;1.70;;
5225;SDS011;2632;51.666;7.146;2022-09-09T05:01:20;1.77;;;1.30;;
5225;SDS011;2632;51.666;7.146;2022-09-09T05:03:48;1.90;;;1.53;;
5225;SDS011;2632;51.666;7.146;2022-09-09T05:06:16;5.77;;;1.33;;
5225;SDS011;2632;51.666;7.146;2022-09-09T05:08:44;2.47;;;1.60;;
5225;SDS011;2632;51.666;7.146;2022-09-09T05:11:27;6.10;;;1.50;;
5225;SDS011;2632;51.666;7.146;2022-09-09T05:13:55;1.90;;;1.70;;
5225;SDS011;2632;51.666;7.146;2022-09-09T05:16:23;2.27;;;1.73;;
5225;SDS011;2632;51.666;7.146;2022-09-09T05:18:50;2.10;;;1.73;;
5225;SDS011;2632;51.666;7.146;2022-09-09T05:21:17;2.33;;;1.40;;
5225;SDS011;2632;51.666;7.146;2022-09-09T05:23:45;4.60;;;1.53;;
5225;SDS011;2632;51.666;7.146;2022-09-09T05:26:13;2.03;;;1.40;;
5225;SDS011;2632;51.666;7.146;2022-09-09T05:28:43;2.80;;;1.10;;
5225;SDS011;2632;51.666;7.146;2022-09-09T05:31:10;1.50;;;0.90;;
5225;SDS011;2632;51.666;7.146;2022-09-09T05:33:39;3.83;;;1.30;;
5225;SDS011;2632;51.666;7.146;2022-09-09T05:36:10;1.27;;;1.10;;
5225;SDS011;2632;51.666;7.146;2022-09-09T05:38:41;1.30;;;1.00;;
5225;SDS011;2632;51.666;7.146;2022-09-09T05:41:08;2.40;;;1.27;;
5225;SDS011;2632;51.666;7.146;2022-09-09T05:43:37;2.00;;;1.10;;
5225;SDS011;2632;51.666;7.146;2022-09-09T05:46:05;1.67;;;0.93;;
5225;SDS011;2632;51.666;7.146;2022-09-09T05:48:34;3.03;;;1.03;;
5225;SDS011;2632;51.666;7.146;2022-09-09T05:51:03;2.03;;;1.27;;
5225;SDS011;2632;51.666;7.146;2022-09-09T05:53:32;1.73;;;1.10;;
5225;SDS011;2632;51.666;7.146;2022-09-09T05:56:03;2.13;;;1.00;;
5225;SDS011;2632;51.666;7.146;2022-09-09T05:58:36;2.60;;;1.10;;
5225;SDS011;2632;51.666;7.146;2022-09-09T06:01:08;1.30;;;1.20;;
5225;SDS011;2632;51.666;7.146;2022-09-09T06:03:37;2.70;;;1.20;;
5225;SDS011;2632;51.666;7.146;2022-09-09T06:06:06;2.27;;;0.90;;
5225;SDS011;2632;51.666;7.146;2022-09-09T06:08:35;3.43;;;1.07;;
5225;SDS011;2632;51.666;7.146;2022-09-09T06:11:06;2.53;;;0.83;;
5225;SDS011;2632;51.666;7.146;2022-09-09T06:13:35;1.10;;;1.00;;
5225;SDS011;2632;51.666;7.146;2022-09-09T06:16:03;1.53;;;1.33;;
5225;SDS011;2632;51.666;7.146;2022-09-09T06:18:30;0.90;;;0.80;;
5225;SDS011;2632;51.666;7.146;2022-09-09T06:20:57;2.13;;;0.87;;
5225;SDS011;2632;51.666;7.146;2022-09-09T06:23:30;0.70;;;0.70;;
5225;SDS011;2632;51.666;7.146;2022-09-09T06:26:16;1.60;;;1.07;;
5225;SDS011;2632;51.666;7.146;2022-09-09T06:28:45;5.50;;;1.23;;
5225;SDS011;2632;51.666;7.146;2022-09-09T06:31:15;1.10;;;0.80;;
5225;SDS011;2632;51.666;7.146;2022-09-09T06:33:53;1.80;;;0.93;;
5225;SDS011;2632;51.666;7.146;2022-09-09T06:36:22;1.33;;;0.90;;
5225;SDS011;2632;51.666;7.146;2022-09-09T06:38:57;1.00;;;0.90;;
5225;SDS011;2632;51.666;7.146;2022-09-09T06:41:26;2.80;;;0.90;;
5225;SDS011;2632;51.666;7.146;2022-09-09T06:43:54;1.67;;;0.90;;
5225;SDS011;2632;51.666;7.146;2022-09-09T06:46:25;1.83;;;0.87;;
5225;SDS011;2632;51.666;7.146;2022-09-09T06:48:54;3.40;;;1.07;;
5225;SDS011;2632;51.666;7.146;2022-09-09T06:51:22;2.97;;;1.03;;
5225;SDS011;2632;51.666;7.146;2022-09-09T06:53:50;1.70;;;0.83;;
5225;SDS011;2632;51.666;7.146;2022-09-09T06:58:51;3.13;;;1.17;;
5225;SDS011;2632;51.666;7.146;2022-09-09T07:01:19;2.50;;;1.10;;
5225;SDS011;2632;51.666;7.146;2022-09-09T07:03:48;2.77;;;0.70;;
5225;SDS011;2632;51.666;7.146;2022-09-09T07:06:21;1.30;;;1.10;;
5225;SDS011;2632;51.666;7.146;2022-09-09T07:08:53;1.73;;;1.03;;
5225;SDS011;2632;51.666;7.146;2022-09-09T07:11:25;1.87;;;0.97;;
5225;SDS011;2632;51.666;7.146;2022-09-09T07:13:54;1.93;;;0.73;;
5225;SDS011;2632;51.666;7.146;2022-09-09T07:16:22;1.83;;;1.10;;
5225;SDS011;2632;51.666;7.146;2022-09-09T07:18:51;3.57;;;1.10;;
5225;SDS011;2632;51.666;7.146;2022-09-09T07:21:18;1.93;;;0.97;;
5225;SDS011;2632;51.666;7.146;2022-09-09T07:23:46;4.13;;;1.67;;
5225;SDS011;2632;51.666;7.146;2022-09-09T07:26:14;2.77;;;1.30;;
5225;SDS011;2632;51.666;7.146;2022-09-09T07:28:42;3.60;;;1.33;;
5225;SDS011;2632;51.666;7.146;2022-09-09T07:31:13;2.17;;;1.40;;
5225;SDS011;2632;51.666;7.146;2022-09-09T07:33:42;6.27;;;1.40;;
5225;SDS011;2632;51.666;7.146;2022-09-09T07:36:11;2.90;;;1.57;;
5225;SDS011;2632;51.666;7.146;2022-09-09T07:38:47;8.47;;;1.70;;
5225;SDS011;2632;51.666;7.146;2022-09-09T07:41:17;2.40;;;1.40;;
5225;SDS011;2632;51.666;7.146;2022-09-09T07:43:49;3.40;;;1.40;;
5225;SDS011;2632;51.666;7.146;2022-09-09T07:46:17;3.10;;;1.13;;
5225;SDS011;2632;51.666;7.146;2022-09-09T07:48:46;3.43;;;1.47;;
5225;SDS011;2632;51.666;7.146;2022-09-09T07:51:18;5.30;;;1.23;;
5225;SDS011;2632;51.666;7.146;2022-09-09T07:53:59;2.90;;;1.30;;
5225;SDS011;2632;51.666;7.146;2022-09-09T07:56:31;8.50;;;1.33;;
5225;SDS011;2632;51.666;7.146;2022-09-09T07:58:58;5.43;;;1.70;;
5225;SDS011;2632;51.666;7.146;2022-09-09T08:01:30;4.70;;;1.40;;
5225;SDS011;2632;51.666;7.146;2022-09-09T08:03:59;2.43;;;1.33;;
5225;SDS011;2632;51.666;7.146;2022-09-09T08:06:28;8.00;;;2.30;;
5225;SDS011;2632;51.666;7.146;2022-09-09T08:08:56;6.07;;;1.67;;
5225;SDS011;2632;51.666;7.146;2022-09-09T08:11:23;1.63;;;1.20;;
5225;SDS011;2632;51.666;7.146;2022-09-09T08:13:52;3.70;;;1.50;;
5225;SDS011;2632;51.666;7.146;2022-09-09T08:16:24;2.20;;;1.10;;
5225;SDS011;2632;51.666;7.146;2022-09-09T08:18:52;3.33;;;1.20;;
5225;SDS011;2632;51.666;7.146;2022-09-09T08:21:26;4.07;;;2.37;;
5225;SDS011;2632;51.666;7.146;2022-09-09T08:23:55;3.63;;;1.47;;
5225;SDS011;2632;51.666;7.146;2022-09-09T08:26:24;6.47;;;1.90;;
5225;SDS011;2632;51.666;7.146;2022-09-09T08:29:00;4.07;;;1.37;;
5225;SDS011;2632;51.666;7.146;2022-09-09T08:31:38;2.57;;;1.20;;
5225;SDS011;2632;51.666;7.146;2022-09-09T08:34:07;4.43;;;0.90;;
5225;SDS011;2632;51.666;7.146;2022-09-09T08:36:38;10.87;;;1.37;;
5225;SDS011;2632;51.666;7.146;2022-09-09T08:39:09;3.53;;;1.03;;
5225;SDS011;2632;51.666;7.146;2022-09-09T08:41:56;2.50;;;1.03;;
5225;SDS011;2632;51.666;7.146;2022-09-09T08:50:55;4.37;;;1.27;;
5225;SDS011;2632;51.666;7.146;2022-09-09T08:53:28;5.70;;;1.37;;
5225;SDS011;2632;51.666;7.146;2022-09-09T08:56:08;3.23;;;1.20;;
5225;SDS011;2632;51.666;7.146;2022-09-09T08:58:57;4.07;;;1.30;;
5225;SDS011;2632;51.666;7.146;2022-09-09T09:01:38;3.17;;;0.90;;
5225;SDS011;2632;51.666;7.146;2022-09-09T09:07:26;3.23;;;1.23;;
5225;SDS011;2632;51.666;7.146;2022-09-09T09:10:15;2.00;;;0.90;;
5225;SDS011;2632;51.666;7.146;2022-09-09T09:13:12;4.77;;;1.30;;
5225;SDS011;2632;51.666;7.146;2022-09-09T09:15:44;1.53;;;1.07;;
5225;SDS011;2632;51.666;7.146;2022-09-09T09:18:16;4.53;;;1.40;;
5225;SDS011;2632;51.666;7.146;2022-09-09T09:23:56;3.27;;;1.27;;
5225;SDS011;2632;51.666;7.146;2022-09-09T09:26:25;4.30;;;1.17;;
5225;SDS011;2632;51.666;7.146;2022-09-09T09:28:57;5.43;;;1.27;;
5225;SDS011;2632;51.666;7.146;2022-09-09T09:31:26;1.53;;;1.07;;
5225;SDS011;2632;51.666;7.146;2022-09-09T09:33:54;2.03;;;0.93;;
5225;SDS011;2632;51.666;7.146;2022-09-09T09:36:23;4.30;;;1.20;;
5225;SDS011;2632;51.666;7.146;2022-09-09T09:38:59;2.20;;;1.30;;
5225;SDS011;2632;51.666;7.146;2022-09-09T09:41:47;2.80;;;1.00;;
5225;SDS011;2632;51.666;7.146;2022-09-09T09:44:31;2.87;;;1.10;;
5225;SDS011;2632;51.666;7.146;2022-09-09T09:47:10;1.87;;;0.93;;
5225;SDS011;2632;51.666;7.146;2022-09-09T09:49:37;1.13;;;1.00;;
5225;SDS011;2632;51.666;7.146;2022-09-09T09:52:04;1.27;;;1.07;;
5225;SDS011;2632;51.666;7.146;2022-09-09T09:54:38;3.63;;;1.17;;
5225;SDS011;2632;51.666;7.146;2022-09-09T09:57:08;1.80;;;0.90;;
5225;SDS011;2632;51.666;7.146;2022-09-09T09:59:37;2.10;;;1.10;;
5225;SDS011;2632;51.666;7.146;2022-09-09T10:02:16;4.87;;;1.17;;
5225;SDS011;2632;51.666;7.146;2022-09-09T10:04:47;2.40;;;1.10;;
5225;SDS011;2632;51.666;7.146;2022-09-09T10:07:18;1.93;;;1.10;;
5225;SDS011;2632;51.666;7.146;2022-09-09T10:09:53;1.90;;;1.10;;
5225;SDS011;2632;51.666;7.146;2022-09-09T10:20:46;3.23;;;1.30;;
5225;SDS011;2632;51.666;7.146;2022-09-09T10:23:46;2.10;;;1.40;;
5225;SDS011;2632;51.666;7.146;2022-09-09T10:26:19;1.83;;;1.40;;
5225;SDS011;2632;51.666;7.146;2022-09-09T10:29:20;6.20;;;1.60;;
5225;SDS011;2632;51.666;7.146;2022-09-09T10:34:49;6.13;;;1.50;;
5225;SDS011;2632;51.666;7.146;2022-09-09T10:49:08;11.57;;;3.00;;
5225;SDS011;2632;51.666;7.146;2022-09-09T10:52:06;15.90;;;4.30;;
5225;SDS011;2632;51.666;7.146;2022-09-09T10:54:53;16.10;;;4.90;;
5225;SDS011;2632;51.666;7.146;2022-09-09T10:57:46;10.93;;;2.83;;
5225;SDS011;2632;51.666;7.146;2022-09-09T11:00:17;11.97;;;3.60;;
5225;SDS011;2632;51.666;7.146;2022-09-09T11:03:22;10.63;;;3.80;;
5225;SDS011;2632;51.666;7.146;2022-09-09T11:05:53;20.00;;;5.70;;
5225;SDS011;2632;51.666;7.146;2022-09-09T11:08:28;7.90;;;3.73;;
5225;SDS011;2632;51.666;7.146;2022-09-09T11:11:08;5.90;;;2.30;;
5225;SDS011;2632;51.666;7.146;2022-09-09T11:18:47;3.90;;;1.43;;
5225;SDS011;2632;51.666;7.146;2022-09-09T11:24:22;2.73;;;1.40;;
5225;SDS011;2632;51.666;7.146;2022-09-09T11:26:57;3.70;;;1.20;;
5225;SDS011;2632;51.666;7.146;2022-09-09T11:32:06;1.60;;;1.00;;
5225;SDS011;2632;51.666;7.146;2022-09-09T11:42:35;3.90;;;1.20;;
5225;SDS011;2632;51.666;7.146;2022-09-09T11:45:09;3.40;;;0.90;;
5225;SDS011;2632;51.666;7.146;2022-09-09T11:47:57;1.77;;;0.73;;
5225;SDS011;2632;51.666;7.146;2022-09-09T11:53:02;3.07;;;1.00;;
5225;SDS011;2632;51.666;7.146;2022-09-09T11:55:34;1.73;;;1.13;;
5225;SDS011;2632;51.666;7.146;2022-09-09T11:58:03;2.03;;;1.10;;
5225;SDS011;2632;51.666;7.146;2022-09-09T12:00:41;2.23;;;1.00;;
5225;SDS011;2632;51.666;7.146;2022-09-09T12:03:32;0.97;;;0.87;;
5225;SDS011;2632;51.666;7.146;2022-09-09T12:05:57;3.13;;;1.30;;
5225;SDS011;2632;51.666;7.146;2022-09-09T12:08:26;1.60;;;1.10;;
5225;SDS011;2632;51.666;7.146;2022-09-09T12:10:55;1.80;;;1.10;;
5225;SDS011;2632;51.666;7.146;2022-09-09T12:13:29;3.00;;;1.40;;
5225;SDS011;2632;51.666;7.146;2022-09-09T12:15:58;1.97;;;1.10;;
5225;SDS011;2632;51.666;7.146;2022-09-09T12:18:31;2.97;;;1.07;;
5225;SDS011;2632;51.666;7.146;2022-09-09T12:21:18;1.53;;;0.90;;
5225;SDS011;2632;51.666;7.146;2022-09-09T12:24:03;3.07;;;1.10;;
5225;SDS011;2632;51.666;7.146;2022-09-09T12:26:41;1.93;;;1.07;;
5225;SDS011;2632;51.666;7.146;2022-09-09T12:35:20;3.70;;;1.20;;
5225;SDS011;2632;51.666;7.146;2022-09-09T12:37:29;1.67;;;1.10;;
5225;SDS011;2632;51.666;7.146;2022-09-09T12:40:06;2.03;;;1.20;;
5225;SDS011;2632;51.666;7.146;2022-09-09T12:42:45;1.97;;;1.10;;
5225;SDS011;2632;51.666;7.146;2022-09-09T12:45:19;1.90;;;1.30;;
5225;SDS011;2632;51.666;7.146;2022-09-09T12:47:50;2.33;;;1.27;;
5225;SDS011;2632;51.666;7.146;2022-09-09T12:50:21;3.00;;;1.03;;
5225;SDS011;2632;51.666;7.146;2022-09-09T12:52:55;5.00;;;1.00;;
5225;SDS011;2632;51.666;7.146;2022-09-09T12:55:25;4.93;;;1.43;;
5225;SDS011;2632;51.666;7.146;2022-09-09T12:57:56;2.10;;;1.00;;
5225;SDS011;2632;51.666;7.146;2022-09-09T13:00:25;1.37;;;1.07;;
5225;SDS011;2632;51.666;7.146;2022-09-09T13:03:41;3.70;;;1.00;;
5225;SDS011;2632;51.666;7.146;2022-09-09T13:05:44;1.33;;;1.17;;
5225;SDS011;2632;51.666;7.146;2022-09-09T13:08:13;1.20;;;1.10;;
5225;SDS011;2632;51.666;7.146;2022-09-09T13:10:44;2.73;;;1.30;;
5225;SDS011;2632;51.666;7.146;2022-09-09T13:13:21;3.40;;;1.30;;
5225;SDS011;2632;51.666;7.146;2022-09-09T13:15:50;1.80;;;0.83;;
5225;SDS011;2632;51.666;7.146;2022-09-09T13:18:22;1.73;;;1.20;;
5225;SDS011;2632;51.666;7.146;2022-09-09T13:20:52;6.00;;;1.30;;
5225;SDS011;2632;51.666;7.146;2022-09-09T13:23:20;4.90;;;1.70;;
5225;SDS011;2632;51.666;7.146;2022-09-09T13:25:54;0.80;;;0.63;;
5225;SDS011;2632;51.666;7.146;2022-09-09T13:28:29;1.97;;;0.97;;
5225;SDS011;2632;51.666;7.146;2022-09-09T13:31:00;1.07;;;0.70;;
5225;SDS011;2632;51.666;7.146;2022-09-09T13:33:33;1.63;;;0.80;;
5225;SDS011;2632;51.666;7.146;2022-09-09T13:36:04;1.30;;;0.60;;
5225;SDS011;2632;51.666;7.146;2022-09-09T13:39:16;0.90;;;0.70;;
5225;SDS011;2632;51.666;7.146;2022-09-09T13:41:28;0.83;;;0.70;;
5225;SDS011;2632;51.666;7.146;2022-09-09T13:43:56;1.07;;;0.70;;
5225;SDS011;2632;51.666;7.146;2022-09-09T13:49:16;2.03;;;0.90;;
5225;SDS011;2632;51.666;7.146;2022-09-09T13:51:46;2.47;;;1.03;;
5225;SDS011;2632;51.666;7.146;2022-09-09T13:54:17;1.00;;;0.67;;
5225;SDS011;2632;51.666;7.146;2022-09-09T13:56:45;2.93;;;0.70;;
5225;SDS011;2632;51.666;7.146;2022-09-09T13:59:17;2.50;;;0.87;;
5225;SDS011;2632;51.666;7.146;2022-09-09T14:01:45;0.93;;;0.60;;
5225;SDS011;2632;51.666;7.146;2022-09-09T14:04:12;2.10;;;0.87;;
5225;SDS011;2632;51.666;7.146;2022-09-09T14:06:39;2.63;;;0.93;;
5225;SDS011;2632;51.666;7.146;2022-09-09T14:09:06;1.53;;;0.80;;
5225;SDS011;2632;51.666;7.146;2022-09-09T14:11:38;2.43;;;0.80;;
5225;SDS011;2632;51.666;7.146;2022-09-09T14:14:04;1.37;;;0.80;;
5225;SDS011;2632;51.666;7.146;2022-09-09T14:16:31;1.83;;;0.83;;
5225;SDS011;2632;51.666;7.146;2022-09-09T14:18:58;1.40;;;0.70;;
5225;SDS011;2632;51.666;7.146;2022-09-09T14:21:25;1.70;;;0.90;;
5225;SDS011;2632;51.666;7.146;2022-09-09T14:23:53;3.70;;;1.30;;
5225;SDS011;2632;51.666;7.146;2022-09-09T14:26:21;2.33;;;0.90;;
5225;SDS011;2632;51.666;7.146;2022-09-09T14:28:48;2.07;;;1.20;;
5225;SDS011;2632;51.666;7.146;2022-09-09T14:31:20;1.50;;;0.90;;
5225;SDS011;2632;51.666;7.146;2022-09-09T14:33:48;1.13;;;1.03;;
5225;SDS011;2632;51.666;7.146;2022-09-09T14:36:16;2.83;;;1.10;;
5225;SDS011;2632;51.666;7.146;2022-09-09T14:38:42;5.60;;;1.53;;
5225;SDS011;2632;51.666;7.146;2022-09-09T14:41:10;2.43;;;1.00;;
5225;SDS011;2632;51.666;7.146;2022-09-09T14:43:39;3.27;;;1.23;;
5225;SDS011;2632;51.666;7.146;2022-09-09T14:46:06;3.90;;;1.07;;
5225;SDS011;2632;51.666;7.146;2022-09-09T14:48:34;1.80;;;0.90;;
5225;SDS011;2632;51.666;7.146;2022-09-09T14:51:07;1.63;;;1.00;;
5225;SDS011;2632;51.666;7.146;2022-09-09T14:53:45;1.47;;;0.97;;
5225;SDS011;2632;51.666;7.146;2022-09-09T14:56:16;2.10;;;0.80;;
5225;SDS011;2632;51.666;7.146;2022-09-09T14:58:44;1.60;;;1.00;;
5225;SDS011;2632;51.666;7.146;2022-09-09T15:01:13;2.73;;;1.10;;
5225;SDS011;2632;51.666;7.146;2022-09-09T15:03:42;2.23;;;0.90;;
5225;SDS011;2632;51.666;7.146;2022-09-09T15:06:14;1.23;;;1.00;;
5225;SDS011;2632;51.666;7.146;2022-09-09T15:08:42;1.90;;;0.87;;
5225;SDS011;2632;51.666;7.146;2022-09-09T15:11:10;1.53;;;1.00;;
5225;SDS011;2632;51.666;7.146;2022-09-09T15:13:38;2.47;;;0.93;;
5225;SDS011;2632;51.666;7.146;2022-09-09T15:16:13;1.97;;;1.10;;
5225;SDS011;2632;51.666;7.146;2022-09-09T15:18:41;6.53;;;1.83;;
5225;SDS011;2632;51.666;7.146;2022-09-09T15:21:13;4.43;;;1.73;;
5225;SDS011;2632;51.666;7.146;2022-09-09T15:23:40;2.17;;;1.40;;
5225;SDS011;2632;51.666;7.146;2022-09-09T15:26:08;6.57;;;1.87;;
5225;SDS011;2632;51.666;7.146;2022-09-09T15:28:35;5.60;;;1.60;;
5225;SDS011;2632;51.666;7.146;2022-09-09T15:31:09;4.10;;;1.63;;
5225;SDS011;2632;51.666;7.146;2022-09-09T15:33:40;2.50;;;1.30;;
5225;SDS011;2632;51.666;7.146;2022-09-09T15:38:40;1.70;;;0.83;;
5225;SDS011;2632;51.666;7.146;2022-09-09T15:41:07;1.27;;;0.83;;
5225;SDS011;2632;51.666;7.146;2022-09-09T15:43:33;1.83;;;0.93;;
5225;SDS011;2632;51.666;7.146;2022-09-09T15:46:02;0.60;;;0.60;;
5225;SDS011;2632;51.666;7.146;2022-09-09T15:48:44;3.70;;;0.93;;
5225;SDS011;2632;51.666;7.146;2022-09-09T15:51:14;1.00;;;0.80;;
5225;SDS011;2632;51.666;7.146;2022-09-09T15:54:01;1.60;;;0.90;;
5225;SDS011;2632;51.666;7.146;2022-09-09T15:56:28;1.50;;;0.90;;
5225;SDS011;2632;51.666;7.146;2022-09-09T15:58:59;2.63;;;1.87;;
5225;SDS011;2632;51.666;7.146;2022-09-09T16:01:27;1.87;;;1.20;;
5225;SDS011;2632;51.666;7.146;2022-09-09T16:03:54;2.10;;;1.10;;
5225;SDS011;2632;51.666;7.146;2022-09-09T16:06:21;3.67;;;1.60;;
5225;SDS011;2632;51.666;7.146;2022-09-09T16:08:50;1.47;;;0.90;;
5225;SDS011;2632;51.666;7.146;2022-09-09T16:13:47;1.40;;;1.10;;
5225;SDS011;2632;51.666;7.146;2022-09-09T16:16:17;3.57;;;1.50;;
5225;SDS011;2632;51.666;7.146;2022-09-09T16:18:46;1.90;;;0.93;;
5225;SDS011;2632;51.666;7.146;2022-09-09T16:21:15;2.70;;;0.80;;
5225;SDS011;2632;51.666;7.146;2022-09-09T16:23:47;2.27;;;0.90;;
5225;SDS011;2632;51.666;7.146;2022-09-09T16:26:16;0.70;;;0.70;;
5225;SDS011;2632;51.666;7.146;2022-09-09T16:28:43;1.60;;;0.70;;
5225;SDS011;2632;51.666;7.146;2022-09-09T16:31:16;0.80;;;0.60;;
5225;SDS011;2632;51.666;7.146;2022-09-09T16:33:45;1.20;;;0.60;;
5225;SDS011;2632;51.666;7.146;2022-09-09T16:36:14;0.67;;;0.60;;
5225;SDS011;2632;51.666;7.146;2022-09-09T16:38:42;2.60;;;1.27;;
5225;SDS011;2632;51.666;7.146;2022-09-09T16:41:10;1.87;;;0.73;;
5225;SDS011;2632;51.666;7.146;2022-09-09T16:43:37;1.13;;;0.70;;
5225;SDS011;2632;51.666;7.146;2022-09-09T16:46:14;0.93;;;0.70;;
5225;SDS011;2632;51.666;7.146;2022-09-09T16:48:43;1.90;;;0.80;;
5225;SDS011;2632;51.666;7.146;2022-09-09T16:51:13;1.17;;;0.90;;
5225;SDS011;2632;51.666;7.146;2022-09-09T16:53:44;0.70;;;0.60;;
5225;SDS011;2632;51.666;7.146;2022-09-09T16:56:12;1.00;;;0.80;;
5225;SDS011;2632;51.666;7.146;2022-09-09T16:58:41;1.43;;;0.93;;
5225;SDS011;2632;51.666;7.146;2022-09-09T17:01:11;3.13;;;0.60;;
5225;SDS011;2632;51.666;7.146;2022-09-09T17:03:40;1.93;;;0.80;;
5225;SDS011;2632;51.666;7.146;2022-09-09T17:06:11;1.40;;;0.90;;
5225;SDS011;2632;51.666;7.146;2022-09-09T17:08:39;1.97;;;0.70;;
5225;SDS011;2632;51.666;7.146;2022-09-09T17:11:11;1.83;;;0.70;;
5225;SDS011;2632;51.666;7.146;2022-09-09T17:13:43;0.90;;;0.70;;
5225;SDS011;2632;51.666;7.146;2022-09-09T17:16:10;0.80;;;0.63;;
5225;SDS011;2632;51.666;7.146;2022-09-09T17:18:38;2.30;;;0.93;;
5225;SDS011;2632;51.666;7.146;2022-09-09T17:21:06;1.10;;;0.90;;
5225;SDS011;2632;51.666;7.146;2022-09-09T17:23:36;2.60;;;1.00;;
5225;SDS011;2632;51.666;7.146;2022-09-09T17:26:04;1.63;;;1.07;;
5225;SDS011;2632;51.666;7.146;2022-09-09T17:28:34;2.40;;;0.70;;
5225;SDS011;2632;51.666;7.146;2022-09-09T17:31:01;1.60;;;0.90;;
5225;SDS011;2632;51.666;7.146;2022-09-09T17:33:31;1.17;;;0.70;;
5225;SDS011;2632;51.666;7.146;2022-09-09T17:38:54;2.17;;;1.00;;
5225;SDS011;2632;51.666;7.146;2022-09-09T17:41:22;1.00;;;0.90;;
5225;SDS011;2632;51.666;7.146;2022-09-09T17:43:50;1.83;;;0.80;;
5225;SDS011;2632;51.666;7.146;2022-09-09T17:46:22;3.57;;;1.10;;